createdAt,value
2023-04-08T08:01:08.718Z,468.00
2023-04-08T08:02:08.735Z,467.00
2023-04-08T08:03:08.792Z,466.00
2023-04-08T08:04:08.957Z,463.00
2023-04-08T08:05:08.801Z,461.00
2023-04-08T08:06:08.837Z,461.00
2023-04-08T08:07:08.886Z,459.00
2023-04-08T08:08:08.868Z,460.00
2023-04-08T08:09:08.898Z,459.00
2023-04-08T08:10:08.883Z,462.00
2023-04-08T08:11:08.940Z,462.00
2023-04-08T08:12:08.972Z,463.00
2023-04-08T08:13:09.042Z,462.00
2023-04-08T08:14:09.007Z,462.00
2023-04-08T08:15:09.091Z,460.00
2023-04-08T08:16:09.461Z,458.00
2023-04-08T08:17:09.209Z,459.00
2023-04-08T08:18:09.311Z,459.00
2023-04-08T08:19:09.309Z,460.00
2023-04-08T08:20:09.362Z,461.00
2023-04-08T08:21:09.381Z,462.00
2023-04-08T08:22:09.464Z,463.00
2023-04-08T08:23:09.525Z,463.00
2023-04-08T08:24:09.564Z,462.00
2023-04-08T08:25:09.572Z,462.00
2023-04-08T08:26:09.800Z,464.00
2023-04-08T08:27:09.671Z,462.00
2023-04-08T08:28:09.728Z,465.00
2023-04-08T08:29:09.788Z,464.00
2023-04-08T08:30:09.856Z,463.00
2023-04-08T08:31:09.890Z,462.00
2023-04-08T08:32:09.934Z,464.00
2023-04-08T08:33:10.124Z,466.00
2023-04-08T08:34:10.056Z,464.00
2023-04-08T08:35:10.097Z,464.00
2023-04-08T08:36:10.134Z,466.00
2023-04-08T08:37:10.186Z,465.00
2023-04-08T08:38:10.221Z,465.00
2023-04-08T08:39:10.290Z,460.00
2023-04-08T08:40:10.307Z,459.00
2023-04-08T08:41:10.385Z,458.00
2023-04-08T08:42:10.405Z,464.00
2023-04-08T08:43:10.459Z,467.00
2023-04-08T08:44:10.515Z,474.00
2023-04-08T08:45:10.501Z,476.00
2023-04-08T08:46:10.601Z,478.00
2023-04-08T08:47:10.518Z,482.00
2023-04-08T08:48:10.559Z,482.00
2023-04-08T08:49:10.603Z,484.00
2023-04-08T08:50:10.617Z,487.00
2023-04-08T08:51:10.584Z,489.00
2023-04-08T08:52:10.685Z,491.00
2023-04-08T08:53:10.702Z,494.00
2023-04-08T08:54:10.697Z,494.00
2023-04-08T08:55:27.723Z,496.00
2023-04-08T08:57:10.701Z,524.00
2023-04-08T08:58:10.658Z,527.00
2023-04-08T08:59:10.670Z,524.00
2023-04-08T09:00:10.685Z,528.00
2023-04-08T09:01:10.647Z,531.00
2023-04-08T09:02:10.674Z,533.00
2023-04-08T09:03:10.775Z,532.00
2023-04-08T09:04:10.758Z,529.00
2023-04-08T09:05:10.750Z,520.00
2023-04-08T09:06:12.661Z,494.00
2023-04-08T09:07:10.616Z,488.00
2023-04-08T09:08:10.615Z,488.00
2023-04-08T09:09:10.728Z,487.00
2023-04-08T09:10:10.572Z,490.00
2023-04-08T09:11:10.593Z,491.00
2023-04-08T09:12:10.655Z,493.00
2023-04-08T09:13:10.658Z,493.00
2023-04-08T09:14:10.684Z,496.00
2023-04-08T09:15:10.744Z,496.00
2023-04-08T09:16:10.869Z,496.00
2023-04-08T09:17:10.792Z,495.00
2023-04-08T09:18:10.819Z,494.00
2023-04-08T09:19:10.854Z,491.00
2023-04-08T09:20:10.926Z,494.00
2023-04-08T09:21:10.950Z,491.00
2023-04-08T09:22:11.000Z,487.00
2023-04-08T09:23:11.023Z,486.00
2023-04-08T09:24:11.107Z,483.00
2023-04-08T09:25:11.148Z,483.00
2023-04-08T09:26:11.218Z,485.00
2023-04-08T09:27:11.281Z,486.00
2023-04-08T09:28:11.346Z,488.00
2023-04-08T09:29:25.388Z,488.00
2023-04-08T09:30:12.372Z,490.00
2023-04-08T09:31:11.446Z,494.00
2023-04-08T09:32:11.392Z,495.00
2023-04-08T09:33:11.329Z,496.00
2023-04-08T09:34:11.323Z,495.00
2023-04-08T09:35:11.367Z,496.00
2023-04-08T09:36:11.350Z,496.00
2023-04-08T09:37:11.326Z,497.00
2023-04-08T09:38:11.345Z,499.00
2023-04-08T09:39:11.416Z,498.00
2023-04-08T09:40:13.625Z,499.00
2023-04-08T09:41:11.700Z,497.00
2023-04-08T09:42:11.790Z,497.00
2023-04-08T09:43:11.800Z,495.00
2023-04-08T09:44:11.854Z,497.00
2023-04-08T09:45:11.926Z,495.00
2023-04-08T09:46:12.075Z,495.00
2023-04-08T09:47:12.029Z,492.00
2023-04-08T09:48:13.001Z,492.00
2023-04-08T09:49:12.165Z,489.00
2023-04-08T09:50:12.167Z,487.00
2023-04-08T09:51:12.243Z,485.00
2023-04-08T09:52:12.282Z,485.00
2023-04-08T09:53:12.331Z,486.00
2023-04-08T09:54:12.423Z,489.00
2023-04-08T09:55:12.478Z,488.00
2023-04-08T09:56:12.507Z,488.00
2023-04-08T09:57:12.577Z,490.00
2023-04-08T09:58:12.596Z,490.00
2023-04-08T09:59:12.650Z,491.00
2023-04-08T10:00:12.729Z,492.00
2023-04-08T10:01:12.813Z,494.00
2023-04-08T10:02:12.842Z,494.00
2023-04-08T10:03:13.044Z,495.00
2023-04-08T10:04:12.916Z,498.00
2023-04-08T10:05:13.037Z,498.00
2023-04-08T10:06:13.025Z,496.00
2023-04-08T10:07:13.981Z,498.00
2023-04-08T10:08:13.096Z,499.00
2023-04-08T10:09:13.228Z,501.00
2023-04-08T10:10:13.205Z,502.00
2023-04-08T10:11:13.250Z,500.00
2023-04-08T10:12:13.333Z,499.00
2023-04-08T10:13:13.365Z,498.00
2023-04-08T10:14:13.412Z,499.00
2023-04-08T10:15:13.455Z,500.00
2023-04-08T10:16:13.534Z,501.00
2023-04-08T10:17:13.527Z,499.00
2023-04-08T10:18:13.564Z,496.00
2023-04-08T10:19:13.648Z,498.00
2023-04-08T10:20:13.654Z,499.00
2023-04-08T10:21:13.728Z,499.00
2023-04-08T10:22:13.763Z,499.00
2023-04-08T10:23:13.878Z,499.00
2023-04-08T10:24:13.897Z,499.00
2023-04-08T10:25:13.890Z,499.00
2023-04-08T10:26:13.999Z,499.00
2023-04-08T10:27:14.012Z,501.00
2023-04-08T10:28:14.032Z,502.00
2023-04-08T10:29:14.073Z,504.00
2023-04-08T10:30:14.143Z,503.00
2023-04-08T10:31:14.176Z,504.00
2023-04-08T10:32:14.207Z,504.00
2023-04-08T10:33:14.220Z,503.00
2023-04-08T10:34:14.275Z,502.00
2023-04-08T10:35:14.317Z,503.00
2023-04-08T10:36:14.394Z,503.00
2023-04-08T10:37:14.372Z,503.00
2023-04-08T10:38:14.449Z,503.00
2023-04-08T10:39:14.468Z,501.00
2023-04-08T10:40:14.515Z,501.00
2023-04-08T10:41:14.657Z,500.00
2023-04-08T10:42:14.623Z,502.00
2023-04-08T10:43:14.649Z,500.00
2023-04-08T10:44:14.670Z,503.00
2023-04-08T10:45:14.703Z,504.00
2023-04-08T10:46:14.777Z,507.00
2023-04-08T10:47:14.835Z,507.00
2023-04-08T10:48:14.812Z,506.00
2023-04-08T10:49:14.881Z,503.00
2023-04-08T10:50:14.991Z,502.00
2023-04-08T10:51:15.014Z,500.00
2023-04-08T10:52:15.034Z,501.00
2023-04-08T10:53:15.076Z,502.00
2023-04-08T10:54:15.161Z,502.00
2023-04-08T10:55:15.155Z,502.00
2023-04-08T10:56:15.245Z,501.00
2023-04-08T10:57:15.268Z,499.00
2023-04-08T10:58:15.238Z,498.00
2023-04-08T10:59:15.328Z,499.00
2023-04-08T11:00:15.421Z,498.00
2023-04-08T11:01:15.476Z,497.00
2023-04-08T11:02:15.562Z,498.00
2023-04-08T11:03:15.888Z,495.00
2023-04-08T11:04:15.652Z,495.00
2023-04-08T11:05:15.564Z,497.00
2023-04-08T11:06:15.627Z,499.00
2023-04-08T11:07:15.683Z,498.00
2023-04-08T11:08:15.817Z,496.00
2023-04-08T11:09:15.749Z,496.00
2023-04-08T11:10:15.801Z,496.00
2023-04-08T11:11:15.821Z,495.00
2023-04-08T11:12:15.871Z,494.00
2023-04-08T11:13:15.892Z,494.00
2023-04-08T11:14:15.960Z,493.00
2023-04-08T11:15:16.002Z,495.00
2023-04-08T11:16:18.529Z,497.00
2023-04-08T11:17:16.032Z,497.00
2023-04-08T11:18:16.025Z,499.00
2023-04-08T11:19:16.049Z,501.00
2023-04-08T11:20:16.008Z,502.00
2023-04-08T11:21:15.993Z,500.00
2023-04-08T11:22:16.015Z,497.00
2023-04-08T11:23:15.987Z,495.00
2023-04-08T11:24:15.982Z,494.00
2023-04-08T11:25:15.946Z,497.00
2023-04-08T11:26:15.960Z,499.00
2023-04-08T11:27:15.978Z,495.00
2023-04-08T11:28:15.938Z,495.00
2023-04-08T11:29:15.949Z,495.00
2023-04-08T11:30:15.949Z,499.00
2023-04-08T11:31:15.954Z,498.00
2023-04-08T11:32:15.938Z,498.00
2023-04-08T11:33:15.925Z,495.00
2023-04-08T11:34:15.895Z,494.00
2023-04-08T11:35:15.873Z,492.00
2023-04-08T11:36:15.940Z,494.00
2023-04-08T11:37:15.915Z,492.00
2023-04-08T11:38:15.910Z,491.00
2023-04-08T11:39:15.849Z,492.00
2023-04-08T11:40:15.888Z,491.00
2023-04-08T11:41:15.838Z,492.00
2023-04-08T11:42:15.854Z,491.00
2023-04-08T11:43:15.840Z,493.00
2023-04-08T11:44:15.858Z,493.00
2023-04-08T11:45:15.865Z,494.00
2023-04-08T11:46:15.851Z,494.00
2023-04-08T11:47:15.838Z,493.00
2023-04-08T11:48:15.814Z,492.00
2023-04-08T11:49:15.768Z,490.00
2023-04-08T11:50:15.780Z,490.00
2023-04-08T11:51:23.286Z,489.00
2023-04-08T11:52:15.760Z,489.00
2023-04-08T11:53:15.789Z,491.00
2023-04-08T11:54:15.723Z,489.00
2023-04-08T11:55:15.748Z,488.00
2023-04-08T11:56:15.773Z,488.00
2023-04-08T11:57:15.742Z,487.00
2023-04-08T11:58:15.862Z,484.00
2023-04-08T11:59:15.757Z,486.00
2023-04-08T12:00:15.719Z,487.00
2023-04-08T12:01:15.738Z,487.00
2023-04-08T12:02:15.776Z,487.00
2023-04-08T12:03:15.750Z,486.00
2023-04-08T12:04:15.833Z,489.00
2023-04-08T12:05:15.695Z,490.00
2023-04-08T12:06:15.696Z,490.00
2023-04-08T12:07:15.654Z,492.00
2023-04-08T12:08:15.673Z,490.00
2023-04-08T12:09:15.667Z,489.00
2023-04-08T12:10:15.666Z,489.00
2023-04-08T12:11:20.051Z,489.00
2023-04-08T12:12:15.644Z,486.00
2023-04-08T12:13:15.669Z,487.00
2023-04-08T12:14:15.652Z,486.00
2023-04-08T12:15:15.654Z,488.00
2023-04-08T12:16:15.684Z,490.00
2023-04-08T12:17:15.579Z,488.00
2023-04-08T12:18:15.607Z,485.00
2023-04-08T12:19:15.601Z,485.00
2023-04-08T12:20:15.604Z,486.00
2023-04-08T12:21:15.627Z,488.00
2023-04-08T12:22:15.604Z,490.00
2023-04-08T12:23:15.553Z,492.00
2023-04-08T12:24:15.545Z,490.00
2023-04-08T12:25:15.553Z,488.00
2023-04-08T12:26:15.596Z,489.00
2023-04-08T12:27:15.520Z,487.00
2023-04-08T12:28:15.542Z,487.00
2023-04-08T12:29:15.529Z,486.00
2023-04-08T12:30:16.480Z,484.00
2023-04-08T12:31:15.616Z,485.00
2023-04-08T12:32:15.653Z,486.00
2023-04-08T12:33:15.687Z,486.00
2023-04-08T12:34:15.673Z,486.00
2023-04-08T12:35:15.788Z,488.00
2023-04-08T12:36:15.841Z,489.00
2023-04-08T12:37:15.811Z,488.00
2023-04-08T12:38:15.849Z,490.00
2023-04-08T12:39:15.872Z,487.00
2023-04-08T12:40:15.873Z,488.00
2023-04-08T12:41:15.945Z,487.00
2023-04-08T12:42:15.950Z,487.00
2023-04-08T12:43:16.032Z,490.00
2023-04-08T12:44:16.063Z,491.00
2023-04-08T12:45:16.102Z,492.00
2023-04-08T12:46:16.118Z,491.00
2023-04-08T12:47:16.180Z,490.00
2023-04-08T12:48:16.226Z,489.00
2023-04-08T12:49:16.185Z,487.00
2023-04-08T12:50:16.229Z,487.00
2023-04-08T12:51:16.258Z,485.00
2023-04-08T12:52:16.345Z,483.00
2023-04-08T12:53:16.374Z,481.00
2023-04-08T12:54:16.396Z,484.00
2023-04-08T12:55:16.424Z,486.00
2023-04-08T12:56:16.443Z,486.00
2023-04-08T12:57:16.569Z,489.00
2023-04-08T12:58:16.489Z,490.00
2023-04-08T12:59:16.521Z,493.00
2023-04-08T13:00:16.572Z,493.00
